sensor_id;sensor_type;location;lat;lon;timestamp;temperature;humidity
26051;DHT22;13825;53.496;10.020;2023-02-01T01:30:13;5.10;99.90
26051;DHT22;13825;53.496;10.020;2023-02-01T02:05:32;5.20;99.90
26051;DHT22;13825;53.496;10.020;2023-02-01T02:42:51;5.00;99.90
26051;DHT22;13825;53.496;10.020;2023-02-01T02:42:57;5.10;99.90
26051;DHT22;13825;53.496;10.020;2023-02-01T02:45:49;5.10;99.90
26051;DHT22;13825;53.496;10.020;2023-02-01T02:48:39;5.10;99.90
26051;DHT22;13825;53.496;10.020;2023-02-01T02:51:12;5.00;99.90
26051;DHT22;13825;53.496;10.020;2023-02-01T02:54:20;5.00;99.90
26051;DHT22;13825;53.496;10.020;2023-02-01T02:57:22;5.00;99.90
26051;DHT22;13825;53.496;10.020;2023-02-01T03:00:34;4.90;99.90
26051;DHT22;13825;53.496;10.020;2023-02-01T04:18:29;4.20;99.90
26051;DHT22;13825;53.496;10.020;2023-02-01T04:26:21;4.20;99.90
26051;DHT22;13825;53.496;10.020;2023-02-01T04:31:31;4.20;99.90
26051;DHT22;13825;53.496;10.020;2023-02-01T04:41:53;4.40;99.90
26051;DHT22;13825;53.496;10.020;2023-02-01T04:52:06;4.30;99.90
26051;DHT22;13825;53.496;10.020;2023-02-01T04:54:33;4.20;99.90
26051;DHT22;13825;53.496;10.020;2023-02-01T04:57:02;4.20;99.90
26051;DHT22;13825;53.496;10.020;2023-02-01T04:59:43;4.20;99.90
26051;DHT22;13825;53.496;10.020;2023-02-01T05:02:17;4.10;99.90
26051;DHT22;13825;53.496;10.020;2023-02-01T05:04:53;4.10;99.90
26051;DHT22;13825;53.496;10.020;2023-02-01T05:07:21;4.10;99.90
26051;DHT22;13825;53.496;10.020;2023-02-01T05:09:48;4.10;99.90
26051;DHT22;13825;53.496;10.020;2023-02-01T05:12:19;4.00;99.90
26051;DHT22;13825;53.496;10.020;2023-02-01T05:15:08;3.90;99.90
26051;DHT22;13825;53.496;10.020;2023-02-01T05:17:43;3.70;99.90
26051;DHT22;13825;53.496;10.020;2023-02-01T05:20:24;3.50;99.90
26051;DHT22;13825;53.496;10.020;2023-02-01T05:22:52;3.30;99.90
26051;DHT22;13825;53.496;10.020;2023-02-01T05:25:20;3.10;99.90
26051;DHT22;13825;53.496;10.020;2023-02-01T05:27:54;2.90;99.90
26051;DHT22;13825;53.496;10.020;2023-02-01T05:30:21;2.80;99.90
26051;DHT22;13825;53.496;10.020;2023-02-01T05:33:08;2.60;99.90
26051;DHT22;13825;53.496;10.020;2023-02-01T05:35:41;2.60;99.90
26051;DHT22;13825;53.496;10.020;2023-02-01T05:40:55;2.60;99.90
26051;DHT22;13825;53.496;10.020;2023-02-01T05:43:32;2.60;99.90
26051;DHT22;13825;53.496;10.020;2023-02-01T05:45:59;2.60;99.90
26051;DHT22;13825;53.496;10.020;2023-02-01T05:48:27;2.60;99.90
26051;DHT22;13825;53.496;10.020;2023-02-01T05:50:54;2.50;99.90
26051;DHT22;13825;53.496;10.020;2023-02-01T05:53:25;2.60;99.90
26051;DHT22;13825;53.496;10.020;2023-02-01T05:55:53;2.60;99.90
26051;DHT22;13825;53.496;10.020;2023-02-01T05:58:25;2.50;99.90
26051;DHT22;13825;53.496;10.020;2023-02-01T06:04:04;2.60;99.90
26051;DHT22;13825;53.496;10.020;2023-02-01T06:06:46;2.50;99.90
26051;DHT22;13825;53.496;10.020;2023-02-01T06:09:18;2.60;99.90
26051;DHT22;13825;53.496;10.020;2023-02-01T06:14:22;2.60;99.90
26051;DHT22;13825;53.496;10.020;2023-02-01T06:19:29;2.80;99.90
26051;DHT22;13825;53.496;10.020;2023-02-01T06:21:59;2.80;99.90
26051;DHT22;13825;53.496;10.020;2023-02-01T06:24:40;2.80;99.90
26051;DHT22;13825;53.496;10.020;2023-02-01T06:34:57;3.00;99.90
26051;DHT22;13825;53.496;10.020;2023-02-01T06:37:30;3.00;99.90
26051;DHT22;13825;53.496;10.020;2023-02-01T06:45:11;3.20;99.90
26051;DHT22;13825;53.496;10.020;2023-02-01T06:47:40;3.30;99.90
26051;DHT22;13825;53.496;10.020;2023-02-01T06:50:17;3.40;99.90
26051;DHT22;13825;53.496;10.020;2023-02-01T06:52:46;3.40;99.90
26051;DHT22;13825;53.496;10.020;2023-02-01T06:55:13;3.50;99.90
26051;DHT22;13825;53.496;10.020;2023-02-01T06:57:40;3.50;99.90
26051;DHT22;13825;53.496;10.020;2023-02-01T07:00:10;3.50;99.90
26051;DHT22;13825;53.496;10.020;2023-02-01T07:02:43;3.50;99.90
26051;DHT22;13825;53.496;10.020;2023-02-01T07:05:12;3.60;99.90
26051;DHT22;13825;53.496;10.020;2023-02-01T07:07:48;3.60;99.90
26051;DHT22;13825;53.496;10.020;2023-02-01T07:10:18;3.70;99.90
26051;DHT22;13825;53.496;10.020;2023-02-01T07:12:45;3.70;99.90
26051;DHT22;13825;53.496;10.020;2023-02-01T07:15:12;3.80;99.90
26051;DHT22;13825;53.496;10.020;2023-02-01T07:17:39;3.80;99.90
26051;DHT22;13825;53.496;10.020;2023-02-01T07:20:13;3.80;99.90
26051;DHT22;13825;53.496;10.020;2023-02-01T07:22:48;3.80;99.90
26051;DHT22;13825;53.496;10.020;2023-02-01T07:25:15;3.80;99.90
26051;DHT22;13825;53.496;10.020;2023-02-01T07:27:43;3.80;99.90
26051;DHT22;13825;53.496;10.020;2023-02-01T07:30:13;3.80;99.90
26051;DHT22;13825;53.496;10.020;2023-02-01T07:33:30;3.80;99.90
26051;DHT22;13825;53.496;10.020;2023-02-01T07:36:21;3.90;99.90
26051;DHT22;13825;53.496;10.020;2023-02-01T07:49:18;4.20;99.90
26051;DHT22;13825;53.496;10.020;2023-02-01T07:51:52;4.30;99.90
26051;DHT22;13825;53.496;10.020;2023-02-01T07:54:31;4.40;99.90
26051;DHT22;13825;53.496;10.020;2023-02-01T07:59:48;4.40;99.90
26051;DHT22;13825;53.496;10.020;2023-02-01T08:02:33;4.50;99.90
26051;DHT22;13825;53.496;10.020;2023-02-01T08:05:15;4.50;99.90
26051;DHT22;13825;53.496;10.020;2023-02-01T08:07:54;4.50;99.90
26051;DHT22;13825;53.496;10.020;2023-02-01T08:10:23;4.50;99.90
26051;DHT22;13825;53.496;10.020;2023-02-01T08:33:55;5.00;99.90
26051;DHT22;13825;53.496;10.020;2023-02-01T08:36:25;5.20;99.90
26051;DHT22;13825;53.496;10.020;2023-02-01T08:38:53;5.30;99.90
26051;DHT22;13825;53.496;10.020;2023-02-01T08:41:21;5.40;99.90
26051;DHT22;13825;53.496;10.020;2023-02-01T08:43:49;5.30;99.90
26051;DHT22;13825;53.496;10.020;2023-02-01T08:46:16;5.30;99.90
26051;DHT22;13825;53.496;10.020;2023-02-01T08:48:45;5.20;99.90
26051;DHT22;13825;53.496;10.020;2023-02-01T08:51:17;5.30;99.90
26051;DHT22;13825;53.496;10.020;2023-02-01T08:53:44;5.40;99.90
26051;DHT22;13825;53.496;10.020;2023-02-01T08:56:13;5.40;99.90
26051;DHT22;13825;53.496;10.020;2023-02-01T08:58:40;5.50;99.90
26051;DHT22;13825;53.496;10.020;2023-02-01T09:01:10;5.50;99.90
26051;DHT22;13825;53.496;10.020;2023-02-01T09:03:48;5.50;99.90
26051;DHT22;13825;53.496;10.020;2023-02-01T09:06:18;5.40;99.90
26051;DHT22;13825;53.496;10.020;2023-02-01T09:08:45;5.40;99.90
26051;DHT22;13825;53.496;10.020;2023-02-01T09:11:15;5.50;99.90
26051;DHT22;13825;53.496;10.020;2023-02-01T09:13:42;5.60;99.90
26051;DHT22;13825;53.496;10.020;2023-02-01T09:16:35;5.40;99.90
26051;DHT22;13825;53.496;10.020;2023-02-01T09:19:05;5.40;99.90
26051;DHT22;13825;53.496;10.020;2023-02-01T09:21:34;5.40;99.90
26051;DHT22;13825;53.496;10.020;2023-02-01T09:24:20;5.50;99.90
26051;DHT22;13825;53.496;10.020;2023-02-01T11:57:30;5.50;99.90
26051;DHT22;13825;53.496;10.020;2023-02-01T12:00:19;5.60;99.90
26051;DHT22;13825;53.496;10.020;2023-02-01T12:03:17;5.50;99.90
26051;DHT22;13825;53.496;10.020;2023-02-01T12:05:54;5.40;99.90
26051;DHT22;13825;53.496;10.020;2023-02-01T12:56:29;4.10;99.90
26051;DHT22;13825;53.496;10.020;2023-02-01T12:59:20;4.00;99.90
26051;DHT22;13825;53.496;10.020;2023-02-01T13:01:58;3.90;99.90
26051;DHT22;13825;53.496;10.020;2023-02-01T13:04:30;3.80;99.90
26051;DHT22;13825;53.496;10.020;2023-02-01T13:07:11;3.80;99.90
26051;DHT22;13825;53.496;10.020;2023-02-01T13:09:45;3.80;99.90
26051;DHT22;13825;53.496;10.020;2023-02-01T13:12:17;3.70;99.90
26051;DHT22;13825;53.496;10.020;2023-02-01T13:15:11;3.70;99.90
26051;DHT22;13825;53.496;10.020;2023-02-01T13:17:41;3.70;99.90
26051;DHT22;13825;53.496;10.020;2023-02-01T13:20:17;3.70;99.90
26051;DHT22;13825;53.496;10.020;2023-02-01T13:22:48;3.80;99.90
26051;DHT22;13825;53.496;10.020;2023-02-01T13:25:23;3.80;99.90
26051;DHT22;13825;53.496;10.020;2023-02-01T13:27:55;3.90;99.90
26051;DHT22;13825;53.496;10.020;2023-02-01T13:30:26;4.00;99.90
26051;DHT22;13825;53.496;10.020;2023-02-01T13:33:09;4.10;99.90
26051;DHT22;13825;53.496;10.020;2023-02-01T13:36:04;4.10;99.90
26051;DHT22;13825;53.496;10.020;2023-02-01T13:41:40;4.50;99.90
26051;DHT22;13825;53.496;10.020;2023-02-01T13:44:14;4.50;99.90
26051;DHT22;13825;53.496;10.020;2023-02-01T13:46:48;4.60;99.90
26051;DHT22;13825;53.496;10.020;2023-02-01T13:49:24;4.60;99.90
26051;DHT22;13825;53.496;10.020;2023-02-01T13:52:03;4.40;99.90
26051;DHT22;13825;53.496;10.020;2023-02-01T13:54:33;4.30;99.90
26051;DHT22;13825;53.496;10.020;2023-02-01T13:57:02;4.30;99.90
26051;DHT22;13825;53.496;10.020;2023-02-01T14:00:07;4.20;99.90
26051;DHT22;13825;53.496;10.020;2023-02-01T14:03:06;4.20;99.90
26051;DHT22;13825;53.496;10.020;2023-02-01T14:06:00;4.20;99.90
26051;DHT22;13825;53.496;10.020;2023-02-01T14:09:12;4.20;99.90
26051;DHT22;13825;53.496;10.020;2023-02-01T14:11:42;4.30;99.90
26051;DHT22;13825;53.496;10.020;2023-02-01T14:14:48;4.40;99.90
26051;DHT22;13825;53.496;10.020;2023-02-01T14:17:40;4.70;99.90
26051;DHT22;13825;53.496;10.020;2023-02-01T14:23:20;4.80;99.90
26051;DHT22;13825;53.496;10.020;2023-02-01T14:26:11;4.80;99.90
26051;DHT22;13825;53.496;10.020;2023-02-01T14:28:59;4.70;99.90
26051;DHT22;13825;53.496;10.020;2023-02-01T14:31:44;4.60;99.90
26051;DHT22;13825;53.496;10.020;2023-02-01T14:34:26;4.60;99.90
26051;DHT22;13825;53.496;10.020;2023-02-01T14:36:57;4.60;99.90
26051;DHT22;13825;53.496;10.020;2023-02-01T14:39:50;4.60;99.90
26051;DHT22;13825;53.496;10.020;2023-02-01T14:42:23;4.60;99.90
26051;DHT22;13825;53.496;10.020;2023-02-01T14:48:44;4.40;99.90
26051;DHT22;13825;53.496;10.020;2023-02-01T17:52:37;4.80;99.90
26051;DHT22;13825;53.496;10.020;2023-02-01T17:55:15;4.80;99.90
26051;DHT22;13825;53.496;10.020;2023-02-01T17:57:51;4.70;99.90
26051;DHT22;13825;53.496;10.020;2023-02-01T18:00:22;4.70;99.90
26051;DHT22;13825;53.496;10.020;2023-02-01T18:02:53;4.60;99.90
26051;DHT22;13825;53.496;10.020;2023-02-01T18:05:25;4.60;99.90
26051;DHT22;13825;53.496;10.020;2023-02-01T18:07:54;4.50;99.90
26051;DHT22;13825;53.496;10.020;2023-02-01T18:10:29;4.60;99.90
26051;DHT22;13825;53.496;10.020;2023-02-01T18:12:58;4.60;99.90
26051;DHT22;13825;53.496;10.020;2023-02-01T19:07:14;4.40;99.90
26051;DHT22;13825;53.496;10.020;2023-02-01T19:09:42;4.40;99.90
26051;DHT22;13825;53.496;10.020;2023-02-01T19:12:09;4.40;99.90
26051;DHT22;13825;53.496;10.020;2023-02-01T19:14:39;4.40;99.90
26051;DHT22;13825;53.496;10.020;2023-02-01T19:17:09;4.40;99.90
26051;DHT22;13825;53.496;10.020;2023-02-01T19:19:36;4.50;99.90
26051;DHT22;13825;53.496;10.020;2023-02-01T19:22:14;4.50;99.90
26051;DHT22;13825;53.496;10.020;2023-02-01T19:24:41;4.60;99.90
26051;DHT22;13825;53.496;10.020;2023-02-01T19:27:10;4.70;99.90
26051;DHT22;13825;53.496;10.020;2023-02-01T19:29:37;4.80;99.90
26051;DHT22;13825;53.496;10.020;2023-02-01T19:32:05;4.70;99.90
26051;DHT22;13825;53.496;10.020;2023-02-01T19:34:32;4.70;99.90
26051;DHT22;13825;53.496;10.020;2023-02-01T19:37:03;4.80;99.90
26051;DHT22;13825;53.496;10.020;2023-02-01T19:39:34;4.80;99.90
26051;DHT22;13825;53.496;10.020;2023-02-01T19:42:03;4.90;99.90
26051;DHT22;13825;53.496;10.020;2023-02-01T21:50:43;5.20;99.90
26051;DHT22;13825;53.496;10.020;2023-02-01T21:53:10;5.30;99.90
26051;DHT22;13825;53.496;10.020;2023-02-01T21:55:40;5.30;99.90
